Terminal Aerodrome Forecast
Issued by NWS Charleston, WV

Current Version | Previous Version | Graphics & Text | Print | Product List | Glossary On
Versions: 1 2 3 4 5 6 7 8 9 10 11 12 13 14 15 16 17 18 19 20 21 22
000
FTUS41 KRLX 160900 AAA
TAFPKB
TAF AMD
KPKB 160904Z 1609/1706 18004KT P6SM -SHRA BKN026 BKN035 OVC060
     FM161400 19008KT P6SM OVC017
     FM161900 23010G18KT P6SM OVC010=

USA.gov is the U.S. government's official web portal to all federal, state and local government web resources and services.